createdAt,value
2023-05-14T00:00:51.070Z,0.4934
2023-05-14T00:01:52.500Z,0.4979
2023-05-14T00:02:53.943Z,0.4939
2023-05-14T00:03:55.321Z,0.4917
2023-05-14T00:04:56.663Z,0.4934
2023-05-14T00:05:58.109Z,0.4915
2023-05-14T00:06:59.626Z,0.4960
2023-05-14T00:08:01.001Z,0.4983
2023-05-14T00:09:02.356Z,0.4953
2023-05-14T00:10:03.832Z,0.4864
2023-05-14T00:11:05.205Z,0.4798
2023-05-14T00:12:06.742Z,0.4780
2023-05-14T00:13:08.143Z,0.4770
2023-05-14T00:14:09.513Z,0.4757
2023-05-14T00:15:10.872Z,0.4793
2023-05-14T00:16:12.398Z,0.4796
2023-05-14T00:17:13.769Z,0.4800
2023-05-14T00:18:15.251Z,0.4797
2023-05-14T00:19:16.671Z,0.4816
2023-05-14T00:20:18.117Z,0.4781
2023-05-14T00:21:19.393Z,0.4773
2023-05-14T00:22:20.897Z,0.4695
2023-05-14T00:23:22.351Z,0.4685
2023-05-14T00:24:23.719Z,0.4671
2023-05-14T00:25:25.085Z,0.4678
2023-05-14T00:26:26.631Z,0.4709
2023-05-14T00:27:28.064Z,0.4726
2023-05-14T00:28:29.485Z,0.4732
2023-05-14T00:29:30.891Z,0.4733
2023-05-14T00:30:32.254Z,0.4714
2023-05-14T00:31:33.813Z,0.4690
2023-05-14T00:32:35.144Z,0.4642
2023-05-14T00:33:36.560Z,0.4652
2023-05-14T00:34:37.954Z,0.4632
2023-05-14T00:35:39.401Z,0.4628
2023-05-14T00:36:40.816Z,0.4597
2023-05-14T00:37:42.282Z,0.4646
2023-05-14T00:38:43.615Z,0.4662
2023-05-14T00:39:45.080Z,0.4675
2023-05-14T00:40:46.472Z,0.4661
2023-05-14T00:41:47.840Z,0.4657
2023-05-14T00:42:49.271Z,0.4684
2023-05-14T00:43:50.834Z,0.4659
2023-05-14T00:44:52.183Z,0.4655
2023-05-14T00:45:53.678Z,0.4707
2023-05-14T00:46:55.097Z,0.4720
2023-05-14T00:47:56.519Z,0.4752
2023-05-14T00:48:57.928Z,0.4769
2023-05-14T00:49:59.349Z,0.4820
2023-05-14T00:51:00.739Z,0.4849
2023-05-14T00:52:02.200Z,0.4871
2023-05-14T00:53:03.643Z,0.4805
2023-05-14T00:54:05.805Z,0.4856
2023-05-14T00:55:06.584Z,0.4866
2023-05-14T00:56:07.841Z,0.4844
2023-05-14T00:57:09.307Z,0.4876
2023-05-14T00:58:10.742Z,0.4882
2023-05-14T00:59:12.193Z,0.4927
2023-05-14T01:00:13.500Z,0.4923
2023-05-14T01:01:14.980Z,0.4928
2023-05-14T01:02:16.479Z,0.4941
2023-05-14T01:03:18.007Z,0.4955
2023-05-14T01:04:19.273Z,0.4995
2023-05-14T01:05:20.755Z,0.5018
2023-05-14T01:06:22.090Z,0.5013
2023-05-14T01:07:23.520Z,0.5029
2023-05-14T01:08:25.046Z,0.5049
2023-05-14T01:09:26.397Z,0.5038
2023-05-14T01:10:27.810Z,0.5049
2023-05-14T01:11:29.282Z,0.5008
2023-05-14T01:12:30.701Z,0.4974
2023-05-14T01:13:32.049Z,0.4970
2023-05-14T01:14:33.476Z,0.4960
2023-05-14T01:15:34.903Z,0.4964
2023-05-14T01:16:36.382Z,0.5061
2023-05-14T01:17:37.811Z,0.5111
2023-05-14T01:18:39.288Z,0.5131
2023-05-14T01:19:40.664Z,0.5109
2023-05-14T01:20:42.071Z,0.5049
2023-05-14T01:21:43.458Z,0.4980
2023-05-14T01:22:44.943Z,0.4964
2023-05-14T01:23:46.324Z,0.4960
2023-05-14T01:24:47.733Z,0.4982
2023-05-14T01:25:49.222Z,0.4945
2023-05-14T01:26:50.527Z,0.4938
2023-05-14T01:27:52.109Z,0.4952
2023-05-14T01:28:53.416Z,0.5006
2023-05-14T01:29:54.833Z,0.5003
2023-05-14T01:30:56.407Z,0.4984
2023-05-14T01:31:58.906Z,0.4949
2023-05-14T01:32:59.197Z,0.4932
2023-05-14T01:34:00.612Z,0.4881
2023-05-14T01:35:02.084Z,0.4877
2023-05-14T01:36:04.370Z,0.4903
2023-05-14T01:37:04.952Z,0.4893
2023-05-14T01:38:06.408Z,0.4863
2023-05-14T01:39:07.788Z,0.4875
2023-05-14T01:40:09.143Z,0.4923
2023-05-14T01:41:10.634Z,0.4906
2023-05-14T01:42:12.064Z,0.4901
2023-05-14T01:43:13.489Z,0.4925
2023-05-14T01:44:14.898Z,0.4881
2023-05-14T01:45:16.286Z,0.4890
2023-05-14T01:46:17.808Z,0.4919
2023-05-14T01:47:19.886Z,0.4916
2023-05-14T01:48:20.567Z,0.4934
2023-05-14T01:49:21.958Z,0.4961
2023-05-14T01:50:23.689Z,0.4967
2023-05-14T01:51:24.853Z,0.4979
2023-05-14T01:52:26.283Z,0.4988
2023-05-14T01:53:27.631Z,0.5007
2023-05-14T01:54:29.144Z,0.5010
2023-05-14T01:55:30.472Z,0.4990
2023-05-14T01:56:31.959Z,0.4991
2023-05-14T01:57:33.446Z,0.5000
2023-05-14T01:58:34.757Z,0.4968
2023-05-14T01:59:36.118Z,0.5000
2023-05-14T02:00:37.614Z,0.4942
2023-05-14T02:01:39.131Z,0.4916
2023-05-14T02:02:40.476Z,0.4944
2023-05-14T02:03:42.006Z,0.4954
2023-05-14T02:04:43.321Z,0.5004
2023-05-14T02:05:44.686Z,0.5006
2023-05-14T02:06:46.852Z,0.5013
2023-05-14T02:07:47.669Z,0.4984
2023-05-14T02:08:48.977Z,0.4928
2023-05-14T02:09:50.473Z,0.4912
2023-05-14T02:10:51.823Z,0.4937
2023-05-14T02:11:53.353Z,0.4917
2023-05-14T02:12:54.685Z,0.4896
2023-05-14T02:13:56.162Z,0.4912
2023-05-14T02:14:57.613Z,0.4887
2023-05-14T02:15:59.121Z,0.4899
2023-05-14T02:17:00.429Z,0.4917
2023-05-14T02:18:01.993Z,0.4921
2023-05-14T02:19:03.378Z,0.4934
2023-05-14T02:20:04.677Z,0.4917
2023-05-14T02:21:06.080Z,0.4906
2023-05-14T02:22:07.569Z,0.4942
2023-05-14T02:23:08.932Z,0.4933
2023-05-14T02:24:10.314Z,0.4897
2023-05-14T02:25:11.778Z,0.4912
2023-05-14T02:26:13.253Z,0.4947
2023-05-14T02:27:14.776Z,0.4901
2023-05-14T02:28:16.047Z,0.4851
2023-05-14T02:29:17.483Z,0.4779
2023-05-14T02:30:18.859Z,0.4756
2023-05-14T02:31:20.395Z,0.4820
2023-05-14T02:32:21.827Z,0.4820
2023-05-14T02:33:23.322Z,0.4788
2023-05-14T02:34:24.599Z,0.4761
2023-05-14T02:35:26.068Z,0.4756
2023-05-14T02:36:27.420Z,0.4770
2023-05-14T02:37:28.992Z,0.4781
2023-05-14T02:38:30.292Z,0.4730
2023-05-14T02:39:31.643Z,0.4730
2023-05-14T02:40:33.107Z,0.4748
2023-05-14T02:41:34.593Z,0.4744
2023-05-14T02:42:35.990Z,0.4776
2023-05-14T02:43:37.440Z,0.4809
2023-05-14T02:44:38.722Z,0.4794
2023-05-14T02:45:40.306Z,0.4808
2023-05-14T02:46:41.719Z,0.4772
2023-05-14T02:47:43.945Z,0.4782
2023-05-14T02:48:45.333Z,0.4780
2023-05-14T02:49:45.831Z,0.4779
2023-05-14T02:50:47.420Z,0.4811
2023-05-14T02:51:48.778Z,0.4806
2023-05-14T02:52:50.293Z,0.4858
2023-05-14T02:53:51.696Z,0.4870
2023-05-14T02:54:53.814Z,0.4850
2023-05-14T02:55:54.546Z,0.4852
2023-05-14T02:56:55.908Z,0.4899
2023-05-14T02:57:57.356Z,0.4909
2023-05-14T02:58:59.417Z,0.4917
2023-05-14T03:00:00.052Z,0.4891
2023-05-14T03:01:01.647Z,0.4885
2023-05-14T03:02:03.093Z,0.4850
2023-05-14T03:03:04.467Z,0.4847
2023-05-14T03:04:05.899Z,0.4930
2023-05-14T03:05:07.286Z,0.4953
2023-05-14T03:06:08.728Z,0.4968
2023-05-14T03:07:10.116Z,0.4999
2023-05-14T03:08:11.449Z,0.5036
2023-05-14T03:09:12.956Z,0.4995
2023-05-14T03:10:14.407Z,0.4964
2023-05-14T03:11:15.792Z,0.4934
2023-05-14T03:12:17.246Z,0.4947
2023-05-14T03:13:18.552Z,0.4930
2023-05-14T03:14:20.063Z,0.4946
2023-05-14T03:15:21.414Z,0.4955
2023-05-14T03:16:22.930Z,0.4924
2023-05-14T03:17:24.274Z,0.4877
2023-05-14T03:18:25.855Z,0.4861
2023-05-14T03:19:27.160Z,0.4882
2023-05-14T03:20:28.593Z,0.4880
2023-05-14T03:21:30.020Z,0.4837
2023-05-14T03:22:31.425Z,0.4779
2023-05-14T03:23:33.366Z,0.4766
2023-05-14T03:24:34.289Z,0.4811
2023-05-14T03:25:35.702Z,0.4865
2023-05-14T03:26:37.076Z,0.4865
2023-05-14T03:27:38.551Z,0.4874
2023-05-14T03:28:39.977Z,0.4846
2023-05-14T03:29:41.416Z,0.4850
2023-05-14T03:30:42.920Z,0.4824
2023-05-14T03:31:44.240Z,0.4824
2023-05-14T03:32:45.642Z,0.4816
2023-05-14T03:33:47.048Z,0.4874
2023-05-14T03:34:48.486Z,0.4850
2023-05-14T03:35:49.920Z,0.4860
2023-05-14T03:36:51.283Z,0.4851
2023-05-14T03:37:52.753Z,0.4836
2023-05-14T03:38:54.180Z,0.4868
2023-05-14T03:39:55.668Z,0.4895
2023-05-14T03:40:57.014Z,0.4894
2023-05-14T03:41:58.441Z,0.4895
2023-05-14T03:42:59.827Z,0.4910
2023-05-14T03:44:01.320Z,0.4874
2023-05-14T03:45:02.760Z,0.4825
2023-05-14T03:46:04.139Z,0.4797
2023-05-14T03:47:05.605Z,0.4786
2023-05-14T03:48:07.102Z,0.4787
2023-05-14T03:49:08.482Z,0.4784
2023-05-14T03:50:09.958Z,0.4780
2023-05-14T03:51:11.259Z,0.4751
2023-05-14T03:52:12.695Z,0.4748
2023-05-14T03:53:14.093Z,0.4769
2023-05-14T03:54:15.549Z,0.4774
2023-05-14T03:55:17.024Z,0.4768
2023-05-14T03:56:18.285Z,0.4793
2023-05-14T03:57:19.756Z,0.4794
2023-05-14T03:58:21.237Z,0.4779
2023-05-14T03:59:22.651Z,0.4767
2023-05-14T04:00:24.333Z,0.4779
2023-05-14T04:01:25.505Z,0.4801
2023-05-14T04:02:27.046Z,0.4791
2023-05-14T04:03:28.407Z,0.4821
2023-05-14T04:04:29.828Z,0.4807
2023-05-14T04:05:31.904Z,0.4892
2023-05-14T04:06:32.607Z,0.4893
2023-05-14T04:07:34.014Z,0.4865
2023-05-14T04:08:35.509Z,0.4878
2023-05-14T04:09:36.938Z,0.4874
2023-05-14T04:10:38.448Z,0.4876
2023-05-14T04:11:39.792Z,0.4891
2023-05-14T04:12:41.184Z,0.4846
2023-05-14T04:13:42.569Z,0.4824
2023-05-14T04:14:44.046Z,0.4820
2023-05-14T04:15:46.354Z,0.4824
2023-05-14T04:16:46.980Z,0.4806
2023-05-14T04:17:48.350Z,0.4802
2023-05-14T04:18:49.780Z,0.4804
2023-05-14T04:19:51.141Z,0.4905
2023-05-14T04:20:52.609Z,0.4943
2023-05-14T04:21:54.033Z,0.4994
2023-05-14T04:22:55.352Z,0.5007
2023-05-14T04:23:56.871Z,0.5006
2023-05-14T04:24:58.393Z,0.5028
2023-05-14T04:25:59.681Z,0.5028
2023-05-14T04:27:01.150Z,0.4990
2023-05-14T04:28:02.514Z,0.4991
2023-05-14T04:29:03.884Z,0.5021
2023-05-14T04:30:05.380Z,0.5061
2023-05-14T04:31:06.831Z,0.5035
2023-05-14T04:32:08.307Z,0.5039
2023-05-14T04:33:09.748Z,0.5074
2023-05-14T04:34:11.076Z,0.5085
2023-05-14T04:35:12.561Z,0.5146
2023-05-14T04:36:13.957Z,0.5144
2023-05-14T04:37:15.289Z,0.5112
2023-05-14T04:38:16.762Z,0.5091
2023-05-14T04:39:18.217Z,0.5063
2023-05-14T04:40:19.704Z,0.5045
2023-05-14T04:41:21.145Z,0.5023
2023-05-14T04:42:22.443Z,0.4986
2023-05-14T04:43:23.934Z,0.4948
2023-05-14T04:44:25.315Z,0.4973
2023-05-14T04:45:26.819Z,0.5036
2023-05-14T04:46:28.369Z,0.5012
2023-05-14T04:47:29.762Z,0.4981
2023-05-14T04:48:31.052Z,0.5011
2023-05-14T04:49:32.534Z,0.4964
2023-05-14T04:50:33.900Z,0.5006
2023-05-14T04:51:35.386Z,0.5053
2023-05-14T04:52:36.749Z,0.5038
2023-05-14T04:53:38.217Z,0.5024
2023-05-14T04:54:39.716Z,0.5002
2023-05-14T04:55:40.958Z,0.5064
2023-05-14T04:56:42.582Z,0.5077
2023-05-14T04:57:43.901Z,0.5021
2023-05-14T04:58:45.284Z,0.4988
2023-05-14T04:59:46.770Z,0.5030
2023-05-14T05:00:48.253Z,0.5037
2023-05-14T05:01:49.698Z,0.5062
2023-05-14T05:02:51.029Z,0.5071
2023-05-14T05:03:52.368Z,0.5058
2023-05-14T05:04:53.880Z,0.5085
2023-05-14T05:05:55.322Z,0.5057
2023-05-14T05:06:56.745Z,0.5082
2023-05-14T05:07:58.188Z,0.5108
2023-05-14T05:09:01.845Z,0.5092
2023-05-14T05:10:00.991Z,0.5083
2023-05-14T05:11:02.464Z,0.5078
2023-05-14T05:12:03.866Z,0.5068
2023-05-14T05:13:05.376Z,0.5061
2023-05-14T05:14:06.826Z,0.5086
2023-05-14T05:15:08.137Z,0.5038
2023-05-14T05:16:09.723Z,0.5033
2023-05-14T05:17:11.012Z,0.5073
2023-05-14T05:18:12.467Z,0.5059
2023-05-14T05:19:13.981Z,0.4997
2023-05-14T05:20:15.377Z,0.4975
2023-05-14T05:21:16.650Z,0.4956
2023-05-14T05:22:18.947Z,0.4964
2023-05-14T05:23:19.491Z,0.4990
2023-05-14T05:24:20.962Z,0.5008
2023-05-14T05:25:22.389Z,0.5018
2023-05-14T05:26:23.802Z,0.5036
2023-05-14T05:27:25.237Z,0.5065
2023-05-14T05:28:26.664Z,0.5049
2023-05-14T05:29:28.031Z,0.5044
2023-05-14T05:30:29.475Z,0.5006
2023-05-14T05:31:30.970Z,0.4960
2023-05-14T05:32:32.487Z,0.4951
2023-05-14T05:33:33.839Z,0.4910
2023-05-14T05:34:35.255Z,0.4884
2023-05-14T05:35:36.710Z,0.4888
2023-05-14T05:36:38.039Z,0.4885
2023-05-14T05:37:39.565Z,0.4867
2023-05-14T05:38:40.973Z,0.4809
2023-05-14T05:39:42.390Z,0.4828
2023-05-14T05:40:43.774Z,0.4818
2023-05-14T05:41:45.353Z,0.4787
2023-05-14T05:42:46.613Z,0.4766
2023-05-14T05:43:48.190Z,0.4778
2023-05-14T05:44:49.591Z,0.4813
2023-05-14T05:45:51.002Z,0.4809
2023-05-14T05:46:52.386Z,0.4821
2023-05-14T05:47:53.874Z,0.4825
2023-05-14T05:48:55.130Z,0.4833
2023-05-14T05:49:56.612Z,0.4821
2023-05-14T05:50:57.986Z,0.4847
2023-05-14T05:51:59.459Z,0.4817
2023-05-14T05:53:00.934Z,0.4796
2023-05-14T05:54:02.470Z,0.4821
2023-05-14T05:55:03.781Z,0.4824
2023-05-14T05:56:05.123Z,0.4841
2023-05-14T05:57:06.578Z,0.4791
2023-05-14T05:58:08.030Z,0.4825
2023-05-14T05:59:09.468Z,0.4859
2023-05-14T06:00:10.869Z,0.4848
2023-05-14T06:01:12.255Z,0.4843
2023-05-14T06:02:13.773Z,0.4857
2023-05-14T06:03:15.163Z,0.4905
2023-05-14T06:04:16.609Z,0.4918
2023-05-14T06:05:18.007Z,0.4896
2023-05-14T06:06:19.535Z,0.4923
2023-05-14T06:07:20.794Z,0.4925
2023-05-14T06:08:22.273Z,0.4910
2023-05-14T06:09:23.664Z,0.4912
2023-05-14T06:10:25.374Z,0.4879
2023-05-14T06:11:26.497Z,0.4891
2023-05-14T06:12:27.953Z,0.4894
2023-05-14T06:13:29.350Z,0.4919
2023-05-14T06:14:30.829Z,0.4934
2023-05-14T06:15:32.165Z,0.4949
2023-05-14T06:16:33.697Z,0.4953
2023-05-14T06:17:35.063Z,0.5004
2023-05-14T06:18:36.582Z,0.5037
2023-05-14T06:19:37.969Z,0.4987
2023-05-14T06:20:39.389Z,0.4998
2023-05-14T06:21:40.680Z,0.5021
2023-05-14T06:22:42.122Z,0.5063
2023-05-14T06:23:43.625Z,0.5001
2023-05-14T06:24:45.017Z,0.4954
2023-05-14T06:25:46.570Z,0.4937
2023-05-14T06:26:47.849Z,0.4919
2023-05-14T06:27:49.258Z,0.4893
2023-05-14T06:28:50.624Z,0.4910
2023-05-14T06:29:52.069Z,0.4910
2023-05-14T06:30:53.514Z,0.4910
2023-05-14T06:31:54.999Z,0.4883
2023-05-14T06:32:56.335Z,0.4899
2023-05-14T06:33:57.645Z,0.4899
2023-05-14T06:34:59.183Z,0.4903
2023-05-14T06:36:00.570Z,0.4904
2023-05-14T06:37:01.973Z,0.4917
2023-05-14T06:38:03.372Z,0.4868
2023-05-14T06:39:04.805Z,0.4865
2023-05-14T06:40:06.269Z,0.4870
2023-05-14T06:41:07.670Z,0.4860
2023-05-14T06:42:09.027Z,0.4834
2023-05-14T06:43:10.585Z,0.4835
2023-05-14T06:44:11.917Z,0.4835
2023-05-14T06:45:13.398Z,0.4831
2023-05-14T06:46:14.760Z,0.4843
2023-05-14T06:47:16.213Z,0.4827
2023-05-14T06:48:17.549Z,0.4834
2023-05-14T06:49:19.024Z,0.4887
2023-05-14T06:50:20.518Z,0.4905
2023-05-14T06:51:21.924Z,0.4864
2023-05-14T06:52:23.353Z,0.4843
2023-05-14T06:53:24.797Z,0.4823
2023-05-14T06:54:26.191Z,0.4825
2023-05-14T06:55:27.602Z,0.4819
2023-05-14T06:56:28.947Z,0.4829
2023-05-14T06:57:30.505Z,0.4839
2023-05-14T06:58:31.769Z,0.4819
2023-05-14T06:59:33.245Z,0.4828
2023-05-14T07:00:34.710Z,0.4843
2023-05-14T07:01:36.234Z,0.4844
2023-05-14T07:02:37.401Z,0.4836
2023-05-14T07:03:39.017Z,0.4793
2023-05-14T07:04:40.392Z,0.4803
2023-05-14T07:05:41.842Z,0.4811
2023-05-14T07:06:43.187Z,0.4806
2023-05-14T07:07:44.629Z,0.4813
2023-05-14T07:08:46.030Z,0.4817
2023-05-14T07:09:47.464Z,0.4835
2023-05-14T07:10:48.929Z,0.4796
2023-05-14T07:11:50.329Z,0.4794
2023-05-14T07:12:51.725Z,0.4785
2023-05-14T07:13:53.244Z,0.4751
2023-05-14T07:14:54.551Z,0.4736
2023-05-14T07:15:56.089Z,0.4717
2023-05-14T07:16:57.523Z,0.4732
2023-05-14T07:17:58.907Z,0.4736
2023-05-14T07:19:00.331Z,0.4762
2023-05-14T07:20:01.833Z,0.4724
2023-05-14T07:21:03.168Z,0.4725
2023-05-14T07:22:04.492Z,0.4711
2023-05-14T07:23:05.902Z,0.4710
2023-05-14T07:24:07.444Z,0.4713
2023-05-14T07:25:08.782Z,0.4712
2023-05-14T07:26:10.287Z,0.4704
2023-05-14T07:27:11.770Z,0.4672
2023-05-14T07:28:13.126Z,0.4671
2023-05-14T07:29:14.406Z,0.4690
2023-05-14T07:30:16.077Z,0.4680
2023-05-14T07:31:17.360Z,0.4653
2023-05-14T07:32:18.781Z,0.4611
2023-05-14T07:33:20.210Z,0.4610
2023-05-14T07:34:21.585Z,0.4595
2023-05-14T07:35:23.022Z,0.4584
2023-05-14T07:36:24.496Z,0.4581
2023-05-14T07:37:25.941Z,0.4553
2023-05-14T07:38:27.350Z,0.4544
2023-05-14T07:39:28.765Z,0.4558
2023-05-14T07:40:30.140Z,0.4545
2023-05-14T07:41:31.661Z,0.4551
2023-05-14T07:42:36.588Z,0.4536
2023-05-14T07:43:34.390Z,0.4504
2023-05-14T07:44:35.834Z,0.4518
2023-05-14T07:45:37.288Z,0.4509
2023-05-14T07:46:38.694Z,0.4549
2023-05-14T07:47:40.152Z,0.4543
2023-05-14T07:48:41.528Z,0.4510
2023-05-14T07:49:42.919Z,0.4524
2023-05-14T07:50:44.358Z,0.4492
2023-05-14T07:51:45.836Z,0.4482
2023-05-14T07:52:47.231Z,0.4497
2023-05-14T07:53:48.624Z,0.4504
2023-05-14T07:54:50.757Z,0.4475
2023-05-14T07:55:51.436Z,0.4449
2023-05-14T07:56:52.889Z,0.4451
2023-05-14T07:57:54.356Z,0.4448
2023-05-14T07:58:55.693Z,0.4416
2023-05-14T07:59:57.073Z,0.4433
2023-05-14T08:00:58.555Z,0.4454
2023-05-14T08:02:00.067Z,0.4495
2023-05-14T08:03:01.459Z,0.4506
2023-05-14T08:04:02.927Z,0.4508
2023-05-14T08:05:04.257Z,0.4515
2023-05-14T08:06:05.728Z,0.4546
2023-05-14T08:07:07.122Z,0.4586
2023-05-14T08:08:08.571Z,0.4569
2023-05-14T08:09:09.894Z,0.4523
2023-05-14T08:10:11.352Z,0.4505
2023-05-14T08:11:12.753Z,0.4503
2023-05-14T08:12:14.222Z,0.4528
2023-05-14T08:13:15.652Z,0.4572
2023-05-14T08:14:16.952Z,0.4586
2023-05-14T08:15:18.434Z,0.4591
2023-05-14T08:16:19.949Z,0.4610
2023-05-14T08:17:21.348Z,0.4635
2023-05-14T08:18:22.765Z,0.4605
2023-05-14T08:19:24.168Z,0.4564
2023-05-14T08:20:25.886Z,0.4591
2023-05-14T08:21:26.969Z,0.4640
2023-05-14T08:22:28.427Z,0.4651
2023-05-14T08:23:29.885Z,0.4666
2023-05-14T08:24:31.328Z,0.4659
2023-05-14T08:25:32.713Z,0.4658
2023-05-14T08:26:34.216Z,0.4707
2023-05-14T08:27:35.597Z,0.4712
2023-05-14T08:28:37.079Z,0.4710
2023-05-14T08:29:38.454Z,0.4746
2023-05-14T08:30:39.806Z,0.4771
2023-05-14T08:31:41.304Z,0.4797
2023-05-14T08:32:42.733Z,0.4792
2023-05-14T08:33:44.173Z,0.4778
2023-05-14T08:34:45.623Z,0.4775
2023-05-14T08:35:46.961Z,0.4786
2023-05-14T08:36:48.401Z,0.4820
2023-05-14T08:37:49.819Z,0.4800
2023-05-14T08:38:51.253Z,0.4804
2023-05-14T08:39:52.680Z,0.4788
2023-05-14T08:40:54.116Z,0.4740
2023-05-14T08:41:55.462Z,0.4719
2023-05-14T08:42:56.960Z,0.4731
2023-05-14T08:43:58.381Z,0.4774
2023-05-14T08:44:59.755Z,0.4802
2023-05-14T08:46:01.217Z,0.4793
2023-05-14T08:47:02.647Z,0.4814
2023-05-14T08:48:04.091Z,0.4849
2023-05-14T08:49:05.593Z,0.4846
2023-05-14T08:50:06.864Z,0.4867
2023-05-14T08:51:08.250Z,0.4906
2023-05-14T08:52:09.640Z,0.4900
2023-05-14T08:53:11.109Z,0.4902
2023-05-14T08:54:12.481Z,0.4931
2023-05-14T08:55:14.051Z,0.4924
2023-05-14T08:56:15.336Z,0.4921
2023-05-14T08:57:16.799Z,0.4910
2023-05-14T08:58:18.136Z,0.4916
2023-05-14T08:59:19.713Z,0.4901
2023-05-14T09:00:21.164Z,0.4893
2023-05-14T09:01:22.582Z,0.4867
2023-05-14T09:02:23.937Z,0.4857
2023-05-14T09:03:25.432Z,0.4872
2023-05-14T09:04:26.818Z,0.4876
2023-05-14T09:05:28.253Z,0.4844
2023-05-14T09:06:29.688Z,0.4843
2023-05-14T09:07:31.024Z,0.4862
2023-05-14T09:08:32.397Z,0.4810
2023-05-14T09:09:33.922Z,0.4791
2023-05-14T09:10:35.344Z,0.4781
2023-05-14T09:11:36.692Z,0.4781
2023-05-14T09:12:38.176Z,0.4766
2023-05-14T09:13:39.574Z,0.4771
2023-05-14T09:14:41.004Z,0.4784
2023-05-14T09:15:42.360Z,0.4785
2023-05-14T09:16:43.886Z,0.4800
2023-05-14T09:17:45.320Z,0.4810
2023-05-14T09:18:46.810Z,0.4794
2023-05-14T09:19:48.205Z,0.4777
2023-05-14T09:20:49.497Z,0.4765
2023-05-14T09:21:50.932Z,0.4790
2023-05-14T09:22:52.364Z,0.4820
2023-05-14T09:23:53.796Z,0.4822
2023-05-14T09:24:55.256Z,0.4773
2023-05-14T09:25:56.748Z,0.4734
2023-05-14T09:26:58.042Z,0.4713
2023-05-14T09:27:59.482Z,0.4688
2023-05-14T09:29:00.764Z,0.4695
2023-05-14T09:30:02.413Z,0.4705
2023-05-14T09:31:03.869Z,0.4725
2023-05-14T09:32:05.353Z,0.4733
2023-05-14T09:33:06.591Z,0.4730
2023-05-14T09:34:08.038Z,0.4736
2023-05-14T09:35:09.520Z,0.4751
2023-05-14T09:36:11.038Z,0.4753
2023-05-14T09:37:12.401Z,0.4770
2023-05-14T09:38:13.869Z,0.4774
2023-05-14T09:39:15.272Z,0.4782
2023-05-14T09:40:16.832Z,0.4739
2023-05-14T09:41:18.108Z,0.4753
2023-05-14T09:42:19.530Z,0.4748
2023-05-14T09:43:20.978Z,0.4739
2023-05-14T09:44:22.374Z,0.4728
2023-05-14T09:45:23.813Z,0.4737
2023-05-14T09:46:25.294Z,0.4705
2023-05-14T09:47:26.706Z,0.4704
2023-05-14T09:48:28.143Z,0.4698
2023-05-14T09:49:29.492Z,0.4723
2023-05-14T09:50:30.976Z,0.4735
2023-05-14T09:51:32.399Z,0.4729
2023-05-14T09:52:33.832Z,0.4725
2023-05-14T09:53:35.287Z,0.4743
2023-05-14T09:54:36.613Z,0.4733
2023-05-14T09:55:38.106Z,0.4745
2023-05-14T09:56:39.627Z,0.4755
2023-05-14T09:57:40.987Z,0.4744
2023-05-14T09:58:42.265Z,0.4703
2023-05-14T09:59:43.837Z,0.4735
2023-05-14T10:00:45.239Z,0.4749
2023-05-14T10:01:46.707Z,0.4765
2023-05-14T10:02:48.144Z,0.4741
2023-05-14T10:03:49.644Z,0.4727
2023-05-14T10:04:50.963Z,0.4761
2023-05-14T10:05:52.462Z,0.4758
2023-05-14T10:06:53.837Z,0.4757
2023-05-14T10:07:55.333Z,0.4787
2023-05-14T10:08:56.613Z,0.4766
2023-05-14T10:09:59.590Z,0.4762
2023-05-14T10:10:59.529Z,0.4790
2023-05-14T10:12:00.965Z,0.4813
2023-05-14T10:13:02.479Z,0.4801
2023-05-14T10:14:03.780Z,0.4810
2023-05-14T10:15:05.158Z,0.4809
2023-05-14T10:16:06.661Z,0.4812
2023-05-14T10:17:08.436Z,0.4827
2023-05-14T10:18:09.710Z,0.4830
2023-05-14T10:19:10.931Z,0.4857
2023-05-14T10:20:12.426Z,0.4855
2023-05-14T10:21:13.767Z,0.4839
2023-05-14T10:22:15.197Z,0.4816
2023-05-14T10:23:16.626Z,0.4804
2023-05-14T10:24:18.116Z,0.4812
2023-05-14T10:25:19.447Z,0.4804
2023-05-14T10:26:23.087Z,0.4789
2023-05-14T10:27:22.380Z,0.4769
2023-05-14T10:28:23.784Z,0.4754
2023-05-14T10:29:25.246Z,0.4766
2023-05-14T10:30:26.889Z,0.4809
2023-05-14T10:31:28.107Z,0.4826
2023-05-14T10:32:29.622Z,0.4816
2023-05-14T10:33:30.921Z,0.4806
2023-05-14T10:34:32.382Z,0.4794
2023-05-14T10:35:33.603Z,0.4783
2023-05-14T10:36:35.190Z,0.4814
2023-05-14T10:37:36.630Z,0.4805
2023-05-14T10:38:38.067Z,0.4833
2023-05-14T10:39:39.505Z,0.4859
2023-05-14T10:40:40.864Z,0.4869
2023-05-14T10:41:42.288Z,0.4884
2023-05-14T10:42:43.734Z,0.4887
2023-05-14T10:43:45.167Z,0.4888
2023-05-14T10:44:46.611Z,0.4890
2023-05-14T10:45:47.949Z,0.4933
2023-05-14T10:46:49.467Z,0.4960
2023-05-14T10:47:51.045Z,0.4965
2023-05-14T10:48:52.337Z,0.4967
2023-05-14T10:49:53.700Z,0.4973
2023-05-14T10:50:55.209Z,0.4977
2023-05-14T10:51:56.527Z,0.4980
2023-05-14T10:52:57.941Z,0.4956
2023-05-14T10:53:59.371Z,0.4944
2023-05-14T10:55:03.189Z,0.4927
2023-05-14T10:56:02.250Z,0.4920
2023-05-14T10:57:03.531Z,0.4914
2023-05-14T10:58:05.211Z,0.4896
2023-05-14T10:59:06.663Z,0.4842
2023-05-14T11:00:08.664Z,0.4819
2023-05-14T11:01:09.343Z,0.4791
2023-05-14T11:02:10.868Z,0.4782
2023-05-14T11:03:12.417Z,0.4769
2023-05-14T11:04:13.795Z,0.4766
2023-05-14T11:05:15.069Z,0.4751
2023-05-14T11:06:16.541Z,0.4775
2023-05-14T11:07:17.934Z,0.4789
2023-05-14T11:08:19.358Z,0.4791
2023-05-14T11:09:20.812Z,0.4775
2023-05-14T11:10:22.510Z,0.4802
2023-05-14T11:11:23.615Z,0.4817
2023-05-14T11:12:25.010Z,0.4798
2023-05-14T11:13:26.291Z,0.4787
2023-05-14T11:14:27.887Z,0.4800
2023-05-14T11:15:29.342Z,0.4784
2023-05-14T11:16:30.691Z,0.4759
2023-05-14T11:17:32.202Z,0.4738
2023-05-14T11:18:33.643Z,0.4767
2023-05-14T11:19:35.015Z,0.4750
2023-05-14T11:20:36.362Z,0.4753
2023-05-14T11:21:37.879Z,0.4791
2023-05-14T11:22:39.186Z,0.4784
2023-05-14T11:23:40.723Z,0.4794
2023-05-14T11:24:42.286Z,0.4802
2023-05-14T11:25:43.602Z,0.4746
2023-05-14T11:26:44.930Z,0.4726
2023-05-14T11:27:46.354Z,0.4734
2023-05-14T11:28:47.776Z,0.4689
2023-05-14T11:29:49.210Z,0.4669
2023-05-14T11:30:50.676Z,0.4643
2023-05-14T11:31:52.164Z,0.4643
2023-05-14T11:32:53.399Z,0.4653
2023-05-14T11:33:54.927Z,0.4675
2023-05-14T11:34:56.343Z,0.4673
2023-05-14T11:35:57.798Z,0.4688
2023-05-14T11:36:59.297Z,0.4691
2023-05-14T11:38:00.654Z,0.4659
2023-05-14T11:39:01.992Z,0.4636
2023-05-14T11:40:03.503Z,0.4622
2023-05-14T11:41:04.831Z,0.4624
2023-05-14T11:42:06.290Z,0.4616
2023-05-14T11:43:07.677Z,0.4647
2023-05-14T11:44:09.269Z,0.4649
2023-05-14T11:45:10.636Z,0.4654
2023-05-14T11:46:12.036Z,0.4654
2023-05-14T11:47:13.357Z,0.4641
2023-05-14T11:48:14.852Z,0.4653
2023-05-14T11:49:16.184Z,0.4642
2023-05-14T11:50:17.652Z,0.4660
2023-05-14T11:51:19.183Z,0.4659
2023-05-14T11:52:20.542Z,0.4627
2023-05-14T11:53:22.093Z,0.4622
2023-05-14T11:54:23.308Z,0.4621
2023-05-14T11:55:24.771Z,0.4616
2023-05-14T11:56:26.301Z,0.4620
2023-05-14T11:57:27.664Z,0.4665
2023-05-14T11:58:29.068Z,0.4676
2023-05-14T11:59:30.434Z,0.4666
2023-05-14T12:00:31.882Z,0.4644
2023-05-14T12:01:33.338Z,0.4635
2023-05-14T12:02:34.863Z,0.4641
2023-05-14T12:03:36.103Z,0.4637
2023-05-14T12:04:37.613Z,0.4642
2023-05-14T12:05:39.004Z,0.4653
2023-05-14T12:06:40.374Z,0.4645
2023-05-14T12:07:42.027Z,0.4632
2023-05-14T12:08:43.149Z,0.4630
2023-05-14T12:09:45.464Z,0.4668
2023-05-14T12:10:46.103Z,0.4731
2023-05-14T12:11:47.547Z,0.4722
2023-05-14T12:12:48.999Z,0.4743
2023-05-14T12:13:50.231Z,0.4759
2023-05-14T12:14:51.735Z,0.4772
2023-05-14T12:15:53.224Z,0.4793
2023-05-14T12:16:54.791Z,0.4823
2023-05-14T12:17:56.072Z,0.4849
2023-05-14T12:18:57.478Z,0.4855
2023-05-14T12:19:58.885Z,0.4834
2023-05-14T12:21:00.341Z,0.4814
2023-05-14T12:22:01.803Z,0.4809
2023-05-14T12:23:03.156Z,0.4794
2023-05-14T12:24:04.576Z,0.4751
2023-05-14T12:25:05.850Z,0.4737
2023-05-14T12:26:07.449Z,0.4709
2023-05-14T12:27:08.940Z,0.4706
2023-05-14T12:28:10.398Z,0.4724
2023-05-14T12:29:11.846Z,0.4734
2023-05-14T12:30:21.364Z,0.4762
2023-05-14T12:31:14.599Z,0.4759
2023-05-14T12:32:15.975Z,0.4789
2023-05-14T12:33:17.368Z,0.4821
2023-05-14T12:34:18.859Z,0.4836
2023-05-14T12:35:20.298Z,0.4832
2023-05-14T12:36:22.411Z,0.4823
2023-05-14T12:37:23.070Z,0.4868
2023-05-14T12:38:24.501Z,0.4909
2023-05-14T12:39:25.923Z,0.4946
2023-05-14T12:40:27.329Z,0.4932
2023-05-14T12:41:28.797Z,0.4937
2023-05-14T12:42:30.233Z,0.4979
2023-05-14T12:43:31.663Z,0.5014
2023-05-14T12:44:33.202Z,0.5041
2023-05-14T12:45:34.406Z,0.5070
2023-05-14T12:46:35.938Z,0.5050